createdAt,value
2022-10-09T00:01:21.843Z,75.50
2022-10-09T00:03:52.352Z,73.10
2022-10-09T00:06:22.988Z,71.60
2022-10-09T00:08:52.207Z,74.30
2022-10-09T00:11:24.473Z,71.50
2022-10-09T00:13:54.045Z,70.30
2022-10-09T00:16:23.092Z,68.70
2022-10-09T00:18:51.993Z,68.20
2022-10-09T00:21:22.637Z,68.40
2022-10-09T00:23:51.671Z,67.90
2022-10-09T00:26:21.848Z,69.20
2022-10-09T00:28:50.849Z,71.10
2022-10-09T00:31:19.956Z,72.00
2022-10-09T00:33:48.508Z,71.10
2022-10-09T00:36:19.347Z,72.70
2022-10-09T00:38:47.750Z,70.40
2022-10-09T00:41:18.062Z,69.90
2022-10-09T00:43:50.127Z,69.40
2022-10-09T00:46:29.324Z,70.60
2022-10-09T00:49:03.543Z,68.90
2022-10-09T00:51:33.187Z,68.80
2022-10-09T00:54:03.164Z,71.10
2022-10-09T00:56:31.368Z,70.40
2022-10-09T00:59:01.256Z,69.20
2022-10-09T01:01:29.388Z,72.50
2022-10-09T01:03:57.532Z,70.00
2022-10-09T01:06:38.263Z,70.90
2022-10-09T01:09:13.719Z,69.20
2022-10-09T01:11:50.287Z,67.80
2022-10-09T01:14:27.167Z,66.70
2022-10-09T01:17:02.839Z,67.90
2022-10-09T01:19:45.730Z,68.20
2022-10-09T01:22:26.070Z,69.10
2022-10-09T01:24:57.750Z,69.10
2022-10-09T01:27:29.097Z,67.80
2022-10-09T01:30:00.356Z,67.60
2022-10-09T01:32:32.976Z,68.00
2022-10-09T01:35:02.715Z,66.80
2022-10-09T01:37:32.268Z,67.30
2022-10-09T01:40:01.372Z,68.50
2022-10-09T01:42:33.141Z,67.80
2022-10-09T01:45:01.288Z,67.30
2022-10-09T01:47:29.583Z,69.80
2022-10-09T01:50:04.908Z,69.70
2022-10-09T01:52:41.628Z,71.50
2022-10-09T01:55:21.588Z,70.80
2022-10-09T01:57:57.101Z,68.80
2022-10-09T02:00:25.721Z,68.70
2022-10-09T02:02:56.239Z,67.00
2022-10-09T02:05:29.014Z,67.40
2022-10-09T02:07:59.467Z,69.60
2022-10-09T02:10:27.800Z,68.70
2022-10-09T02:12:59.050Z,68.10
2022-10-09T02:15:32.571Z,70.70
2022-10-09T02:18:06.145Z,73.40
2022-10-09T02:20:37.272Z,72.90
2022-10-09T02:23:08.454Z,70.00
2022-10-09T02:25:37.148Z,69.40
2022-10-09T02:28:07.496Z,68.20
2022-10-09T02:30:43.463Z,69.20
2022-10-09T02:33:11.512Z,68.60
2022-10-09T02:35:40.613Z,69.60
2022-10-09T02:38:08.910Z,68.60
2022-10-09T02:40:36.976Z,68.80
2022-10-09T02:43:06.576Z,68.30
2022-10-09T02:45:34.806Z,69.70
2022-10-09T02:48:02.919Z,69.50
2022-10-09T02:50:31.027Z,70.80
2022-10-09T02:52:59.239Z,70.60
2022-10-09T02:55:27.368Z,69.50
2022-10-09T02:57:55.443Z,68.60
2022-10-09T03:00:25.036Z,72.20
2022-10-09T03:02:53.335Z,71.50
2022-10-09T03:05:21.927Z,71.40
2022-10-09T03:07:53.119Z,71.80
2022-10-09T03:10:21.891Z,70.90
2022-10-09T03:12:50.457Z,71.30
2022-10-09T03:15:18.774Z,70.60
2022-10-09T03:17:48.303Z,70.30
2022-10-09T03:20:16.532Z,71.40
2022-10-09T03:22:44.607Z,71.20
2022-10-09T03:25:13.132Z,72.00
2022-10-09T03:27:41.364Z,75.00
2022-10-09T03:30:10.899Z,73.30
2022-10-09T03:32:39.052Z,75.70
2022-10-09T03:35:09.304Z,77.50
2022-10-09T03:37:37.518Z,76.60
2022-10-09T03:40:06.364Z,81.30
2022-10-09T03:42:34.641Z,78.80
2022-10-09T03:45:05.752Z,76.90
2022-10-09T03:47:34.043Z,76.10
2022-10-09T03:50:02.136Z,77.50
2022-10-09T03:52:31.583Z,76.20
2022-10-09T03:54:59.696Z,73.80
2022-10-09T03:57:27.793Z,72.50
2022-10-09T03:59:55.883Z,72.20
2022-10-09T04:02:23.999Z,73.80
2022-10-09T04:04:52.219Z,76.40
2022-10-09T04:07:20.335Z,75.80
2022-10-09T04:09:49.913Z,77.90
2022-10-09T04:12:18.639Z,75.50
2022-10-09T04:14:46.770Z,74.70
2022-10-09T04:17:15.000Z,74.80
2022-10-09T04:19:43.352Z,77.30
2022-10-09T04:22:11.690Z,78.00
2022-10-09T04:24:39.889Z,76.40
2022-10-09T04:27:09.463Z,80.30
2022-10-09T04:29:37.575Z,77.00
2022-10-09T04:32:05.752Z,75.70
2022-10-09T04:34:34.102Z,73.40
2022-10-09T04:37:02.432Z,72.50
2022-10-09T04:39:30.833Z,72.80
2022-10-09T04:41:58.958Z,72.60
2022-10-09T04:44:28.401Z,71.00
2022-10-09T04:46:56.672Z,71.80
2022-10-09T04:49:24.752Z,71.10
2022-10-09T04:51:52.878Z,71.40
2022-10-09T04:54:21.036Z,72.00
2022-10-09T04:56:49.079Z,72.40
2022-10-09T04:59:17.171Z,72.60
2022-10-09T05:01:47.011Z,72.90
2022-10-09T05:04:15.128Z,72.30
2022-10-09T05:06:43.271Z,73.00
2022-10-09T05:09:11.392Z,72.60
2022-10-09T05:11:42.636Z,75.00
2022-10-09T05:14:11.718Z,75.30
2022-10-09T05:17:00.978Z,74.50
2022-10-09T05:19:29.551Z,75.00
2022-10-09T05:21:57.945Z,74.00
2022-10-09T05:24:26.039Z,74.50
2022-10-09T05:26:54.170Z,75.40
2022-10-09T05:29:22.341Z,76.60
2022-10-09T05:31:50.557Z,79.00
2022-10-09T05:34:20.060Z,78.50
2022-10-09T05:36:49.676Z,77.70
2022-10-09T05:39:17.909Z,77.30
2022-10-09T05:41:45.954Z,76.90
2022-10-09T05:44:14.110Z,80.10
2022-10-09T05:46:42.239Z,81.50
2022-10-09T05:49:12.236Z,84.40
2022-10-09T05:51:43.648Z,82.70
2022-10-09T05:54:16.053Z,80.40
2022-10-09T05:56:45.184Z,79.00
2022-10-09T05:59:15.603Z,78.10
2022-10-09T06:01:46.707Z,78.90
2022-10-09T06:04:16.672Z,78.00
2022-10-09T06:06:47.520Z,77.40
2022-10-09T06:09:18.134Z,77.20
2022-10-09T06:11:46.620Z,77.40
2022-10-09T06:14:14.924Z,77.90
2022-10-09T06:16:44.781Z,78.20
2022-10-09T06:19:14.532Z,78.60
2022-10-09T06:21:43.338Z,78.40
2022-10-09T06:24:18.389Z,78.00
2022-10-09T06:26:46.472Z,79.80
2022-10-09T06:29:14.551Z,82.20
2022-10-09T06:31:42.697Z,80.00
2022-10-09T06:34:11.994Z,79.10
2022-10-09T06:36:40.067Z,80.10
2022-10-09T06:39:09.467Z,78.30
2022-10-09T06:41:39.228Z,82.30
2022-10-09T06:44:27.646Z,80.80
2022-10-09T06:46:55.670Z,81.50
2022-10-09T06:49:23.792Z,81.00
2022-10-09T06:51:51.880Z,81.20
2022-10-09T06:54:19.985Z,81.70
2022-10-09T06:56:49.526Z,85.00
2022-10-09T06:59:17.863Z,83.50
2022-10-09T07:01:46.133Z,86.10
2022-10-09T07:04:17.686Z,86.10
2022-10-09T07:06:47.832Z,85.70
2022-10-09T07:09:17.089Z,86.50
2022-10-09T07:11:46.916Z,88.60
2022-10-09T07:14:17.195Z,89.10
2022-10-09T07:16:47.015Z,91.20
2022-10-09T07:19:17.591Z,90.50
2022-10-09T07:21:47.749Z,90.00
2022-10-09T07:24:16.124Z,90.20
2022-10-09T07:26:45.978Z,92.20
2022-10-09T07:29:17.799Z,92.10
2022-10-09T07:31:46.262Z,91.20
2022-10-09T07:34:15.028Z,91.20
2022-10-09T07:36:43.418Z,90.30
2022-10-09T07:39:11.698Z,90.70
2022-10-09T07:41:39.772Z,91.30
2022-10-09T07:44:07.915Z,93.30
2022-10-09T07:46:37.499Z,94.70
2022-10-09T07:49:06.135Z,93.70
2022-10-09T07:51:34.448Z,94.30
2022-10-09T07:54:02.963Z,94.40
2022-10-09T07:56:33.671Z,95.60
2022-10-09T07:59:03.922Z,96.50
2022-10-09T08:01:34.081Z,96.40
2022-10-09T08:04:04.235Z,96.10
2022-10-09T08:06:33.149Z,96.10
2022-10-09T08:09:03.614Z,96.80
2022-10-09T08:11:32.200Z,97.00
2022-10-09T08:14:00.905Z,97.80
2022-10-09T08:16:29.592Z,97.10
2022-10-09T08:18:59.427Z,97.30
2022-10-09T08:21:29.168Z,97.80
2022-10-09T08:23:59.322Z,98.70
2022-10-09T08:26:29.857Z,97.80
2022-10-09T08:28:59.831Z,98.20
2022-10-09T08:31:29.560Z,98.00
2022-10-09T08:33:59.712Z,98.90
2022-10-09T08:36:29.491Z,98.80
2022-10-09T08:38:57.587Z,98.20
2022-10-09T08:41:39.714Z,97.80
2022-10-09T08:44:14.373Z,98.40
2022-10-09T08:46:52.956Z,98.20
2022-10-09T08:49:26.326Z,99.50
2022-10-09T08:51:57.165Z,98.70
2022-10-09T08:54:32.601Z,97.00
2022-10-09T08:57:05.587Z,97.40
2022-10-09T08:59:33.857Z,97.00
2022-10-09T09:02:14.892Z,96.80
2022-10-09T09:04:56.627Z,96.50
2022-10-09T09:07:33.455Z,96.00
2022-10-09T09:10:07.301Z,95.30
2022-10-09T09:12:44.991Z,94.60
2022-10-09T09:15:32.829Z,94.40
2022-10-09T09:18:16.011Z,95.60
2022-10-09T09:20:52.900Z,93.20
2022-10-09T09:23:28.012Z,93.00
2022-10-09T09:25:56.862Z,92.40
2022-10-09T09:28:29.779Z,92.10
2022-10-09T09:31:01.497Z,92.30
2022-10-09T09:33:43.633Z,91.60
2022-10-09T09:36:22.048Z,91.30
2022-10-09T09:41:42.340Z,89.80
2022-10-09T09:44:12.527Z,88.80
2022-10-09T09:46:42.932Z,90.20
2022-10-09T09:49:19.662Z,88.90
2022-10-09T09:51:49.775Z,88.80
2022-10-09T09:54:23.659Z,87.60
2022-10-09T09:57:12.020Z,86.90
2022-10-09T09:59:44.168Z,85.10
2022-10-09T10:02:16.081Z,84.20
2022-10-09T10:04:52.536Z,80.20
2022-10-09T10:07:34.658Z,79.20
2022-10-09T10:10:06.418Z,78.00
2022-10-09T10:12:34.822Z,78.50
2022-10-09T10:15:03.320Z,79.10
2022-10-09T10:17:33.625Z,76.70
2022-10-09T10:20:07.389Z,76.00
2022-10-09T10:22:36.845Z,73.50
2022-10-09T10:25:13.956Z,72.60
2022-10-09T10:27:47.233Z,71.80
2022-10-09T10:30:18.567Z,73.50
2022-10-09T10:32:54.983Z,72.30
2022-10-09T10:35:27.076Z,69.00
2022-10-09T10:38:02.901Z,67.80
2022-10-09T10:40:37.693Z,66.50
2022-10-09T10:43:16.333Z,67.30
2022-10-09T10:45:56.179Z,68.10
2022-10-09T10:48:27.185Z,68.10
2022-10-09T10:51:04.612Z,65.60
2022-10-09T10:53:43.111Z,64.90
2022-10-09T10:56:20.728Z,65.90
2022-10-09T10:58:57.203Z,64.90
2022-10-09T11:01:36.337Z,63.90
2022-10-09T11:04:28.630Z,64.00
2022-10-09T11:07:06.451Z,61.00
2022-10-09T11:09:44.439Z,63.20
2022-10-09T11:12:43.401Z,64.00
2022-10-09T11:15:21.263Z,62.00
2022-10-09T11:17:58.792Z,62.40
2022-10-09T11:21:13.791Z,60.60
2022-10-09T11:23:56.141Z,59.50
2022-10-09T11:26:33.054Z,60.80
2022-10-09T11:29:07.884Z,58.50
2022-10-09T11:31:40.783Z,59.10
2022-10-09T11:34:15.816Z,58.20
2022-10-09T11:36:46.586Z,58.80
2022-10-09T11:39:18.287Z,58.20
2022-10-09T11:41:48.528Z,57.30
2022-10-09T11:44:50.405Z,58.50
2022-10-09T11:47:23.105Z,56.70
2022-10-09T11:50:08.139Z,56.20
2022-10-09T11:52:45.555Z,56.50
2022-10-09T11:55:23.727Z,59.40
2022-10-09T11:57:52.564Z,55.80
2022-10-09T12:00:32.575Z,56.60
2022-10-09T12:03:03.530Z,55.10
2022-10-09T12:05:40.211Z,57.60
2022-10-09T12:08:15.405Z,56.30
2022-10-09T12:10:52.081Z,55.50
2022-10-09T12:13:42.221Z,56.60
2022-10-09T12:16:28.042Z,57.80
2022-10-09T12:18:56.772Z,54.10
2022-10-09T12:21:27.060Z,53.90
2022-10-09T12:23:57.761Z,52.10
2022-10-09T12:26:26.811Z,52.60
2022-10-09T12:28:57.919Z,52.10
2022-10-09T12:31:31.133Z,54.10
2022-10-09T12:34:04.615Z,52.90
2022-10-09T12:36:33.621Z,52.90
2022-10-09T12:39:14.660Z,52.90
2022-10-09T12:41:46.151Z,52.40
2022-10-09T12:44:25.051Z,54.20
2022-10-09T12:46:55.706Z,51.10
2022-10-09T12:49:26.581Z,51.20
2022-10-09T12:51:57.579Z,50.20
2022-10-09T12:54:26.676Z,51.40
2022-10-09T12:56:57.803Z,51.90
2022-10-09T12:59:28.488Z,50.50
2022-10-09T13:02:00.109Z,49.90
2022-10-09T13:04:31.581Z,50.60
2022-10-09T13:07:01.168Z,51.50
2022-10-09T13:09:34.043Z,49.20
2022-10-09T13:12:07.660Z,50.00
2022-10-09T13:14:37.890Z,48.70
2022-10-09T13:17:07.671Z,49.20
2022-10-09T13:19:35.972Z,49.30
2022-10-09T13:22:20.741Z,49.60
2022-10-09T13:24:51.364Z,51.80
2022-10-09T13:27:20.472Z,50.50
2022-10-09T13:29:49.240Z,49.00
2022-10-09T13:32:20.148Z,47.10
2022-10-09T13:34:48.410Z,49.30
2022-10-09T13:37:20.132Z,48.00
2022-10-09T13:39:48.539Z,49.30
2022-10-09T13:42:17.669Z,51.10
2022-10-09T13:44:46.050Z,48.30
2022-10-09T13:47:14.512Z,47.80
2022-10-09T13:49:44.267Z,48.40
2022-10-09T13:52:12.418Z,46.10
2022-10-09T13:54:40.617Z,47.60
2022-10-09T13:57:09.095Z,47.50
2022-10-09T13:59:37.973Z,46.40
2022-10-09T14:02:06.196Z,44.10
2022-10-09T14:04:34.543Z,45.90
2022-10-09T14:07:04.400Z,47.60
2022-10-09T14:09:32.535Z,48.40
2022-10-09T14:12:00.729Z,47.00
2022-10-09T14:14:28.962Z,45.50
2022-10-09T14:16:57.232Z,44.40
2022-10-09T14:19:27.807Z,44.20
2022-10-09T14:21:56.091Z,45.10
2022-10-09T14:24:26.528Z,44.90
2022-10-09T14:26:54.856Z,45.40
2022-10-09T14:29:23.019Z,44.50
2022-10-09T14:31:51.821Z,45.40
2022-10-09T14:34:20.138Z,47.00
2022-10-09T14:36:48.851Z,43.70
2022-10-09T14:39:17.435Z,41.00
2022-10-09T14:41:47.062Z,42.20
2022-10-09T14:44:15.197Z,42.60
2022-10-09T14:46:43.551Z,41.40
2022-10-09T14:49:12.504Z,42.10
2022-10-09T14:51:41.880Z,41.10
2022-10-09T14:54:12.211Z,42.70
2022-10-09T14:56:40.771Z,43.30
2022-10-09T14:59:10.296Z,43.60
2022-10-09T15:01:38.542Z,41.20
2022-10-09T15:04:07.478Z,40.00
2022-10-09T15:06:35.811Z,43.50
2022-10-09T15:09:06.249Z,42.70
2022-10-09T15:11:36.037Z,40.40
2022-10-09T15:14:05.108Z,39.20
2022-10-09T15:16:35.045Z,36.20
2022-10-09T15:19:04.623Z,38.80
2022-10-09T15:21:34.611Z,40.60
2022-10-09T15:24:04.550Z,38.10
2022-10-09T15:26:36.639Z,38.10
2022-10-09T15:29:06.591Z,39.30
2022-10-09T15:31:38.117Z,40.70
2022-10-09T15:34:07.736Z,41.80
2022-10-09T15:36:37.634Z,40.20
2022-10-09T15:39:07.460Z,40.60
2022-10-09T15:41:37.972Z,39.80
2022-10-09T15:44:08.586Z,40.70
2022-10-09T15:46:38.154Z,40.10
2022-10-09T15:49:07.981Z,40.90
2022-10-09T15:51:36.801Z,41.20
2022-10-09T15:54:06.178Z,40.90
2022-10-09T15:56:39.485Z,41.90
2022-10-09T15:59:08.756Z,42.10
2022-10-09T16:01:38.591Z,41.40
2022-10-09T16:04:06.897Z,40.80
2022-10-09T16:06:35.326Z,40.90
2022-10-09T16:09:04.738Z,41.40
2022-10-09T16:11:34.577Z,40.80
2022-10-09T16:14:02.809Z,42.10
2022-10-09T16:16:31.008Z,40.10
2022-10-09T16:19:01.504Z,41.00
2022-10-09T16:21:30.612Z,39.50
2022-10-09T16:23:59.789Z,40.10
2022-10-09T16:26:29.232Z,40.60
2022-10-09T16:28:57.588Z,42.10
2022-10-09T16:31:28.071Z,42.70
2022-10-09T16:33:56.371Z,43.90
2022-10-09T16:36:26.031Z,43.40
2022-10-09T16:38:54.576Z,43.20
2022-10-09T16:41:24.173Z,43.80
2022-10-09T16:43:54.372Z,43.30
2022-10-09T16:46:24.529Z,43.60
2022-10-09T16:48:54.321Z,42.20
2022-10-09T16:51:26.646Z,42.80
2022-10-09T16:53:56.641Z,44.60
2022-10-09T16:56:27.480Z,46.70
2022-10-09T16:58:57.012Z,46.00
2022-10-09T17:01:25.689Z,46.30
2022-10-09T17:03:55.340Z,46.30
2022-10-09T17:06:24.936Z,45.90
2022-10-09T17:08:54.604Z,46.00
2022-10-09T17:11:23.579Z,47.30
2022-10-09T17:13:52.157Z,47.50
2022-10-09T17:16:22.720Z,48.00
2022-10-09T17:18:51.207Z,48.40
2022-10-09T17:21:19.818Z,48.60
2022-10-09T17:23:53.450Z,49.50
2022-10-09T17:26:23.100Z,50.30
2022-10-09T17:28:52.002Z,50.80
2022-10-09T17:31:22.939Z,51.80
2022-10-09T17:33:55.051Z,50.60
2022-10-09T17:36:26.017Z,50.50
2022-10-09T17:38:56.080Z,50.10
2022-10-09T17:41:26.865Z,51.00
2022-10-09T17:43:56.803Z,52.00
2022-10-09T17:46:26.382Z,51.40
2022-10-09T17:48:56.784Z,51.90
2022-10-09T17:51:26.716Z,54.70
2022-10-09T17:53:59.252Z,53.80
2022-10-09T17:56:27.537Z,54.60
2022-10-09T17:58:56.888Z,56.00
2022-10-09T18:01:25.234Z,55.30
2022-10-09T18:03:53.543Z,54.20
2022-10-09T18:06:24.129Z,54.60
2022-10-09T18:08:54.060Z,53.90
2022-10-09T18:11:25.242Z,54.00
2022-10-09T18:13:53.665Z,52.50
2022-10-09T18:16:25.265Z,52.90
2022-10-09T18:18:53.444Z,52.90
2022-10-09T18:21:21.584Z,54.10
2022-10-09T18:23:50.026Z,53.50
2022-10-09T18:26:21.071Z,53.40
2022-10-09T18:28:50.647Z,53.20
2022-10-09T18:31:20.252Z,54.60
2022-10-09T18:33:48.987Z,54.30
2022-10-09T18:36:19.707Z,53.60
2022-10-09T18:38:49.663Z,53.80
2022-10-09T18:41:18.783Z,54.90
2022-10-09T18:43:47.471Z,54.30
2022-10-09T18:46:18.813Z,54.70
2022-10-09T18:48:47.603Z,54.70
2022-10-09T18:51:18.612Z,54.50
2022-10-09T18:53:50.204Z,54.40
2022-10-09T18:56:20.633Z,54.70
2022-10-09T18:58:50.692Z,55.00
2022-10-09T19:01:20.708Z,55.00
2022-10-09T19:03:50.362Z,54.70
2022-10-09T19:06:18.874Z,55.40
2022-10-09T19:08:47.490Z,56.50
2022-10-09T19:11:15.649Z,57.70
2022-10-09T19:13:44.702Z,57.50
2022-10-09T19:16:13.064Z,59.60
2022-10-09T19:18:42.650Z,59.80
2022-10-09T19:21:14.186Z,61.30
2022-10-09T19:23:44.020Z,62.40
2022-10-09T19:26:13.600Z,61.10
2022-10-09T19:28:42.099Z,60.30
2022-10-09T19:31:11.661Z,59.00
2022-10-09T19:33:43.059Z,58.30
2022-10-09T19:36:15.123Z,58.10
2022-10-09T19:38:43.572Z,57.70
2022-10-09T19:41:14.092Z,57.70
2022-10-09T19:43:42.841Z,58.70
2022-10-09T19:46:14.705Z,58.30
2022-10-09T19:48:42.768Z,58.30
2022-10-09T19:51:14.351Z,58.60
2022-10-09T19:53:43.539Z,58.70
2022-10-09T19:56:12.516Z,59.10
2022-10-09T19:58:41.832Z,58.90
2022-10-09T20:01:11.576Z,59.70
2022-10-09T20:03:41.452Z,58.90
2022-10-09T20:06:10.562Z,59.40
2022-10-09T20:08:41.224Z,58.50
2022-10-09T20:11:11.524Z,60.40
2022-10-09T20:13:41.501Z,59.60
2022-10-09T20:16:12.582Z,59.90
2022-10-09T20:18:42.329Z,60.20
2022-10-09T20:21:12.371Z,59.70
2022-10-09T20:23:44.247Z,59.30
2022-10-09T20:26:14.863Z,58.80
2022-10-09T20:28:43.278Z,59.50
2022-10-09T20:31:14.765Z,59.80
2022-10-09T20:33:43.974Z,61.30
2022-10-09T20:36:19.876Z,61.80
2022-10-09T20:38:49.472Z,64.40
2022-10-09T20:41:17.808Z,67.00
2022-10-09T20:43:46.584Z,71.40
2022-10-09T20:46:15.822Z,73.30
2022-10-09T20:48:45.058Z,77.30
2022-10-09T20:51:13.241Z,77.60
2022-10-09T20:53:41.416Z,74.80
2022-10-09T20:56:14.429Z,71.70
2022-10-09T20:58:43.037Z,69.40
2022-10-09T21:01:14.077Z,67.70
2022-10-09T21:03:42.186Z,67.00
2022-10-09T21:06:13.372Z,66.20
2022-10-09T21:08:41.892Z,66.40
2022-10-09T21:11:13.562Z,65.50
2022-10-09T21:13:41.754Z,65.30
2022-10-09T21:16:11.863Z,65.20
2022-10-09T21:18:40.419Z,65.90
2022-10-09T21:21:10.941Z,64.90
2022-10-09T21:23:39.276Z,64.80
2022-10-09T21:26:13.514Z,65.20
2022-10-09T21:28:41.736Z,64.70
2022-10-09T21:31:10.635Z,65.10
2022-10-09T21:33:38.979Z,66.30
2022-10-09T21:36:11.500Z,68.00
2022-10-09T21:38:39.848Z,67.10
2022-10-09T21:41:07.996Z,65.90
2022-10-09T21:43:37.654Z,64.90
2022-10-09T21:46:05.970Z,64.90
2022-10-09T21:48:34.150Z,65.50
2022-10-09T21:51:02.324Z,67.10
2022-10-09T21:53:30.639Z,67.70
2022-10-09T21:55:59.156Z,71.30
2022-10-09T21:58:27.378Z,74.20
2022-10-09T22:01:02.112Z,74.80
2022-10-09T22:03:32.593Z,73.90
2022-10-09T22:06:01.227Z,72.30
2022-10-09T22:08:29.371Z,69.40
2022-10-09T22:10:57.525Z,67.20
2022-10-09T22:13:25.912Z,71.00
2022-10-09T22:15:54.125Z,70.50
2022-10-09T22:18:23.820Z,69.50
2022-10-09T22:20:52.935Z,68.20
2022-10-09T22:23:22.154Z,68.50
2022-10-09T22:25:58.059Z,66.90
2022-10-09T22:28:26.446Z,66.90
2022-10-09T22:31:06.059Z,67.10
2022-10-09T22:33:37.313Z,66.10
2022-10-09T22:36:10.311Z,65.70
2022-10-09T22:38:39.142Z,69.70
2022-10-09T22:41:09.903Z,68.50
2022-10-09T22:43:39.693Z,68.60
2022-10-09T22:46:09.670Z,70.60
2022-10-09T22:48:39.704Z,71.60
2022-10-09T22:51:10.471Z,71.60
2022-10-09T22:53:39.620Z,71.00
2022-10-09T22:56:08.539Z,71.00
2022-10-09T22:58:36.776Z,70.30
2022-10-09T23:01:07.141Z,72.50
2022-10-09T23:03:35.743Z,71.70
2022-10-09T23:06:10.637Z,72.60
2022-10-09T23:08:40.121Z,73.60
2022-10-09T23:11:09.570Z,76.60
2022-10-09T23:13:38.640Z,80.30
2022-10-09T23:16:09.385Z,83.10
2022-10-09T23:18:38.738Z,82.50
2022-10-09T23:21:10.876Z,82.90
2022-10-09T23:23:38.978Z,82.20
2022-10-09T23:26:08.496Z,80.10
2022-10-09T23:28:37.106Z,80.30
2022-10-09T23:31:06.374Z,80.00
2022-10-09T23:33:35.547Z,80.00
2022-10-09T23:36:04.279Z,79.30
2022-10-09T23:38:34.204Z,78.60
2022-10-09T23:41:04.295Z,80.80
2022-10-09T23:43:34.775Z,78.30
2022-10-09T23:46:04.817Z,76.30
2022-10-09T23:48:33.399Z,76.00
2022-10-09T23:51:04.216Z,75.60
2022-10-09T23:53:35.063Z,78.00
2022-10-09T23:56:06.096Z,77.90
2022-10-09T23:58:34.279Z,79.70
